Carrollton, Texas
Current Conditions -  °F | °C
As of 9:50 AM on Thursday 23 Oct 2014 (Local Time) from KADS Reporting Station
Overcast Overcast  
Wind Chill: 66°   Ceiling: 9000
Heat Index: 66°   Visibility: 10mi
Dew Point: 52°   Wind: 8mph
Humidity: 60%   Direction: 140°SE
Pressure: 30.17"   Gusts: NA
Location:  32.98°N, 96.89°W
Report Text: KADS 231450Z 14007KT 10SM OVC090 19/11 A3017
Loading
Personal Weather Stations






























Interactive Weather Map
Tropical Storm Tracking
New forecast layout! Learn more

10-Day Weather Forecast

Advertisements
Track Severe Weather on mobile